Skip Navigation Links Skip Navigation Links

Current Weather

Fulton County, Rochester, Ind.

For information only: do not use for flight planning or navigation.
Latest weather
Observation time Tuesday, October 19, 2021 4:15 AM EDT
Local time Tuesday, October 19, 2021 4:27 AM EDT
Flight conditions Visual Meteorological Conditions
Winds
Wind direction Southwest (220°)
Wind speed 3 mph
Visibility 10 mi.
Sky condition
Ceiling unlimited
Sky clear
Temperature 54°F
Dewpoint 45°F
Altimeter 30.14 in.Hg
Derived measurements
Relative humidity 71%
Density altitude 327 ft.
Remarks
Fully automated report.
Automated weather observing station with precipitation discriminator.
METAR KRCR 190815Z AUTO 22003KT 10SM CLR 12/07 A3014 RMK AO2

Settings

Location code

InnerDrive.Weather 4.0.6770.0 Release CLR 4.0.30319.42000
Copyright ©2018 Inner Drive Technology. All rights reserved. Portions Copyright ©1986-2018 David Braverman.

Find weather

Site navigation


Skip Navigation Links

Place info

Page info

PayPal - The safer, easier way to pay online!

Return home.

Copyright ©2021 Inner Drive Technology. Purveyors of fine, hand-crafted computer software. Page printed 2021-10-19T08:27:46 UTC.